Toro, Spain
Current Conditions -  °F | °C
As of 4:00 PM on Thursday 18 Dec 2014 (Local Time) from LEVD Reporting Station
Scattered Clouds Scattered Clouds  
Wind Chill: 46°   Ceiling: Unl
Heat Index: 46°   Visibility: 6mi
Dew Point: 43°   Wind: 1mph
Humidity: 87%   Direction: NA
Pressure: 30.39"   Gusts: NA
Location:  41.53°N, 5.39°W
Report Text: LEVD 181500Z VRB01KT 9999 SCT011 08/06 Q1029
Loading
Personal Weather Stations






























Interactive Weather Map New forecast layout! Learn more

10-Day Weather Forecast

Advertisements
Track Severe Weather on mobile